sensor_id;sensor_type;location;lat;lon;timestamp;temperature;humidity
49679;DHT22;35570;48.218;16.326;2023-03-23T00:00:43;13.80;64.10
49679;DHT22;35570;48.218;16.326;2023-03-23T00:03:09;13.70;63.70
49679;DHT22;35570;48.218;16.326;2023-03-23T00:05:35;13.80;63.70
49679;DHT22;35570;48.218;16.326;2023-03-23T00:08:02;13.70;63.30
49679;DHT22;35570;48.218;16.326;2023-03-23T00:10:29;13.70;63.50
49679;DHT22;35570;48.218;16.326;2023-03-23T00:12:58;13.60;64.40
49679;DHT22;35570;48.218;16.326;2023-03-23T00:15:28;13.60;63.80
49679;DHT22;35570;48.218;16.326;2023-03-23T00:18:01;13.50;64.40
49679;DHT22;35570;48.218;16.326;2023-03-23T00:20:30;13.50;64.80
49679;DHT22;35570;48.218;16.326;2023-03-23T00:23:05;13.50;64.20
49679;DHT22;35570;48.218;16.326;2023-03-23T00:25:32;13.40;64.20
49679;DHT22;35570;48.218;16.326;2023-03-23T00:27:58;13.40;64.50
49679;DHT22;35570;48.218;16.326;2023-03-23T00:30:23;13.40;64.90
49679;DHT22;35570;48.218;16.326;2023-03-23T00:32:49;13.40;65.20
49679;DHT22;35570;48.218;16.326;2023-03-23T00:35:16;13.30;65.90
49679;DHT22;35570;48.218;16.326;2023-03-23T00:37:43;13.30;65.60
49679;DHT22;35570;48.218;16.326;2023-03-23T00:40:09;13.30;65.70
49679;DHT22;35570;48.218;16.326;2023-03-23T00:42:36;13.30;65.50
49679;DHT22;35570;48.218;16.326;2023-03-23T00:45:04;13.30;65.60
49679;DHT22;35570;48.218;16.326;2023-03-23T00:47:36;13.20;66.40
49679;DHT22;35570;48.218;16.326;2023-03-23T00:50:03;13.20;65.50
49679;DHT22;35570;48.218;16.326;2023-03-23T00:52:30;13.20;65.70
49679;DHT22;35570;48.218;16.326;2023-03-23T00:54:56;13.20;66.80
49679;DHT22;35570;48.218;16.326;2023-03-23T00:57:22;13.20;66.00
49679;DHT22;35570;48.218;16.326;2023-03-23T00:59:50;13.20;65.50
49679;DHT22;35570;48.218;16.326;2023-03-23T01:02:16;13.20;65.40
49679;DHT22;35570;48.218;16.326;2023-03-23T01:04:43;13.20;65.70
49679;DHT22;35570;48.218;16.326;2023-03-23T01:07:10;13.10;65.70
49679;DHT22;35570;48.218;16.326;2023-03-23T01:09:38;13.10;65.80
49679;DHT22;35570;48.218;16.326;2023-03-23T01:12:10;13.10;66.40
49679;DHT22;35570;48.218;16.326;2023-03-23T01:14:36;13.10;65.60
49679;DHT22;35570;48.218;16.326;2023-03-23T01:17:02;13.10;67.00
49679;DHT22;35570;48.218;16.326;2023-03-23T01:19:27;13.00;65.80
49679;DHT22;35570;48.218;16.326;2023-03-23T01:21:53;13.00;66.60
49679;DHT22;35570;48.218;16.326;2023-03-23T01:24:19;13.00;66.20
49679;DHT22;35570;48.218;16.326;2023-03-23T01:26:44;13.00;66.90
49679;DHT22;35570;48.218;16.326;2023-03-23T01:29:10;13.00;66.80
49679;DHT22;35570;48.218;16.326;2023-03-23T01:31:36;13.00;67.40
49679;DHT22;35570;48.218;16.326;2023-03-23T01:34:03;13.00;66.70
49679;DHT22;35570;48.218;16.326;2023-03-23T01:36:30;12.90;67.10
49679;DHT22;35570;48.218;16.326;2023-03-23T01:38:59;12.90;66.80
49679;DHT22;35570;48.218;16.326;2023-03-23T01:41:26;12.80;67.80
49679;DHT22;35570;48.218;16.326;2023-03-23T01:44:03;12.90;67.90
49679;DHT22;35570;48.218;16.326;2023-03-23T01:46:31;12.90;67.60
49679;DHT22;35570;48.218;16.326;2023-03-23T01:49:07;12.80;67.20
49679;DHT22;35570;48.218;16.326;2023-03-23T01:51:37;12.80;67.10
49679;DHT22;35570;48.218;16.326;2023-03-23T01:54:07;12.90;67.80
49679;DHT22;35570;48.218;16.326;2023-03-23T01:56:41;12.80;67.60
49679;DHT22;35570;48.218;16.326;2023-03-23T01:59:11;12.90;67.90
49679;DHT22;35570;48.218;16.326;2023-03-23T02:01:37;12.80;67.00
49679;DHT22;35570;48.218;16.326;2023-03-23T02:04:04;12.70;67.40
49679;DHT22;35570;48.218;16.326;2023-03-23T02:06:31;12.70;67.60
49679;DHT22;35570;48.218;16.326;2023-03-23T02:08:57;12.70;66.90
49679;DHT22;35570;48.218;16.326;2023-03-23T02:11:23;12.70;67.10
49679;DHT22;35570;48.218;16.326;2023-03-23T02:13:49;12.70;68.20
49679;DHT22;35570;48.218;16.326;2023-03-23T02:24:22;12.60;68.10
49679;DHT22;35570;48.218;16.326;2023-03-23T02:35:04;12.50;67.70
49679;DHT22;35570;48.218;16.326;2023-03-23T02:37:46;12.50;67.40
49679;DHT22;35570;48.218;16.326;2023-03-23T02:40:20;12.40;67.80
49679;DHT22;35570;48.218;16.326;2023-03-23T02:42:50;12.30;67.90
49679;DHT22;35570;48.218;16.326;2023-03-23T02:45:17;12.30;67.90
49679;DHT22;35570;48.218;16.326;2023-03-23T02:47:46;12.30;68.10
49679;DHT22;35570;48.218;16.326;2023-03-23T02:50:14;12.30;68.30
49679;DHT22;35570;48.218;16.326;2023-03-23T02:52:43;12.30;68.10
49679;DHT22;35570;48.218;16.326;2023-03-23T02:55:10;12.30;68.20
49679;DHT22;35570;48.218;16.326;2023-03-23T02:57:37;12.30;68.70
49679;DHT22;35570;48.218;16.326;2023-03-23T03:00:10;12.20;68.00
49679;DHT22;35570;48.218;16.326;2023-03-23T03:02:40;12.20;68.20
49679;DHT22;35570;48.218;16.326;2023-03-23T03:08:28;12.10;68.70
49679;DHT22;35570;48.218;16.326;2023-03-23T03:11:03;12.10;68.70
49679;DHT22;35570;48.218;16.326;2023-03-23T03:13:43;12.10;69.10
49679;DHT22;35570;48.218;16.326;2023-03-23T03:21:31;12.20;68.40
49679;DHT22;35570;48.218;16.326;2023-03-23T03:24:01;12.10;68.70
49679;DHT22;35570;48.218;16.326;2023-03-23T03:26:30;12.10;68.50
49679;DHT22;35570;48.218;16.326;2023-03-23T03:28:56;12.20;69.10
49679;DHT22;35570;48.218;16.326;2023-03-23T03:31:27;12.10;69.00
49679;DHT22;35570;48.218;16.326;2023-03-23T03:33:53;12.10;68.30
49679;DHT22;35570;48.218;16.326;2023-03-23T03:36:26;12.10;68.80
49679;DHT22;35570;48.218;16.326;2023-03-23T03:38:53;12.10;69.30
49679;DHT22;35570;48.218;16.326;2023-03-23T03:41:19;12.00;69.60
49679;DHT22;35570;48.218;16.326;2023-03-23T03:43:45;12.00;69.40
49679;DHT22;35570;48.218;16.326;2023-03-23T03:46:11;11.90;69.90
49679;DHT22;35570;48.218;16.326;2023-03-23T03:48:37;11.90;70.10
49679;DHT22;35570;48.218;16.326;2023-03-23T03:51:02;11.90;70.50
49679;DHT22;35570;48.218;16.326;2023-03-23T03:53:29;11.90;69.90
49679;DHT22;35570;48.218;16.326;2023-03-23T03:55:55;11.90;69.70
49679;DHT22;35570;48.218;16.326;2023-03-23T03:58:22;11.90;69.40
49679;DHT22;35570;48.218;16.326;2023-03-23T04:00:49;12.00;69.30
49679;DHT22;35570;48.218;16.326;2023-03-23T04:03:16;11.90;69.70
49679;DHT22;35570;48.218;16.326;2023-03-23T04:05:42;11.90;69.90
49679;DHT22;35570;48.218;16.326;2023-03-23T04:08:10;11.90;70.00
49679;DHT22;35570;48.218;16.326;2023-03-23T04:10:36;11.90;69.60
49679;DHT22;35570;48.218;16.326;2023-03-23T04:13:02;11.90;70.10
49679;DHT22;35570;48.218;16.326;2023-03-23T04:15:30;11.90;70.40
49679;DHT22;35570;48.218;16.326;2023-03-23T04:17:56;11.90;70.60
49679;DHT22;35570;48.218;16.326;2023-03-23T04:20:23;11.90;70.20
49679;DHT22;35570;48.218;16.326;2023-03-23T04:22:49;11.90;69.70
49679;DHT22;35570;48.218;16.326;2023-03-23T04:25:18;11.80;70.20
49679;DHT22;35570;48.218;16.326;2023-03-23T04:27:47;11.80;70.40
49679;DHT22;35570;48.218;16.326;2023-03-23T04:30:19;11.80;70.60
49679;DHT22;35570;48.218;16.326;2023-03-23T04:32:45;11.70;70.60
49679;DHT22;35570;48.218;16.326;2023-03-23T04:35:13;11.70;70.80
49679;DHT22;35570;48.218;16.326;2023-03-23T04:37:39;11.70;70.80
49679;DHT22;35570;48.218;16.326;2023-03-23T04:40:07;11.70;71.50
49679;DHT22;35570;48.218;16.326;2023-03-23T04:42:36;11.80;72.20
49679;DHT22;35570;48.218;16.326;2023-03-23T04:45:03;11.80;71.90
49679;DHT22;35570;48.218;16.326;2023-03-23T04:47:33;11.80;73.10
49679;DHT22;35570;48.218;16.326;2023-03-23T04:49:59;11.90;73.60
49679;DHT22;35570;48.218;16.326;2023-03-23T04:52:26;11.90;72.70
49679;DHT22;35570;48.218;16.326;2023-03-23T04:54:54;12.00;72.70
49679;DHT22;35570;48.218;16.326;2023-03-23T04:57:21;12.00;72.70
49679;DHT22;35570;48.218;16.326;2023-03-23T04:59:47;12.00;72.30
49679;DHT22;35570;48.218;16.326;2023-03-23T05:02:14;12.00;72.50
49679;DHT22;35570;48.218;16.326;2023-03-23T05:04:40;11.90;72.70
49679;DHT22;35570;48.218;16.326;2023-03-23T05:07:07;11.90;71.70
49679;DHT22;35570;48.218;16.326;2023-03-23T05:09:33;11.90;72.20
49679;DHT22;35570;48.218;16.326;2023-03-23T05:12:09;12.00;71.90
49679;DHT22;35570;48.218;16.326;2023-03-23T05:14:35;11.90;71.50
49679;DHT22;35570;48.218;16.326;2023-03-23T05:17:06;11.90;71.90
49679;DHT22;35570;48.218;16.326;2023-03-23T05:19:32;12.00;72.50
49679;DHT22;35570;48.218;16.326;2023-03-23T05:21:58;12.00;71.20
49679;DHT22;35570;48.218;16.326;2023-03-23T05:24:30;12.00;71.90
49679;DHT22;35570;48.218;16.326;2023-03-23T05:26:58;12.00;71.40
49679;DHT22;35570;48.218;16.326;2023-03-23T05:29:24;12.10;71.50
49679;DHT22;35570;48.218;16.326;2023-03-23T05:31:51;12.00;72.70
49679;DHT22;35570;48.218;16.326;2023-03-23T05:34:19;12.10;72.70
49679;DHT22;35570;48.218;16.326;2023-03-23T05:36:45;12.10;71.60
49679;DHT22;35570;48.218;16.326;2023-03-23T05:39:11;12.10;71.20
49679;DHT22;35570;48.218;16.326;2023-03-23T05:41:39;12.10;71.90
49679;DHT22;35570;48.218;16.326;2023-03-23T05:44:04;12.20;71.00
49679;DHT22;35570;48.218;16.326;2023-03-23T05:46:30;12.20;71.60
49679;DHT22;35570;48.218;16.326;2023-03-23T05:48:56;12.20;72.40
49679;DHT22;35570;48.218;16.326;2023-03-23T05:51:21;12.30;71.60
49679;DHT22;35570;48.218;16.326;2023-03-23T05:53:47;12.40;71.50
49679;DHT22;35570;48.218;16.326;2023-03-23T05:56:13;12.50;73.00
49679;DHT22;35570;48.218;16.326;2023-03-23T05:58:39;12.50;72.90
49679;DHT22;35570;48.218;16.326;2023-03-23T06:01:08;12.60;72.70
49679;DHT22;35570;48.218;16.326;2023-03-23T06:03:33;12.70;70.30
49679;DHT22;35570;48.218;16.326;2023-03-23T06:06:02;12.70;72.90
49679;DHT22;35570;48.218;16.326;2023-03-23T06:08:28;12.80;72.90
49679;DHT22;35570;48.218;16.326;2023-03-23T06:10:54;12.80;72.20
49679;DHT22;35570;48.218;16.326;2023-03-23T06:13:21;12.90;71.10
49679;DHT22;35570;48.218;16.326;2023-03-23T06:15:47;13.00;71.00
49679;DHT22;35570;48.218;16.326;2023-03-23T06:18:13;13.00;71.40
49679;DHT22;35570;48.218;16.326;2023-03-23T06:20:39;13.10;70.60
49679;DHT22;35570;48.218;16.326;2023-03-23T06:23:06;13.10;70.80
49679;DHT22;35570;48.218;16.326;2023-03-23T06:25:32;13.20;70.50
49679;DHT22;35570;48.218;16.326;2023-03-23T06:27:58;13.20;70.20
49679;DHT22;35570;48.218;16.326;2023-03-23T06:30:24;13.30;69.90
49679;DHT22;35570;48.218;16.326;2023-03-23T06:32:51;13.40;69.70
49679;DHT22;35570;48.218;16.326;2023-03-23T06:35:17;13.40;72.20
49679;DHT22;35570;48.218;16.326;2023-03-23T06:37:43;13.40;70.00
49679;DHT22;35570;48.218;16.326;2023-03-23T06:40:09;13.50;69.10
49679;DHT22;35570;48.218;16.326;2023-03-23T06:42:38;13.60;69.10
49679;DHT22;35570;48.218;16.326;2023-03-23T06:45:05;13.70;71.20
49679;DHT22;35570;48.218;16.326;2023-03-23T06:47:31;13.80;71.30
49679;DHT22;35570;48.218;16.326;2023-03-23T06:49:57;13.90;70.20
49679;DHT22;35570;48.218;16.326;2023-03-23T06:52:24;14.00;70.30
49679;DHT22;35570;48.218;16.326;2023-03-23T06:54:51;14.10;68.20
49679;DHT22;35570;48.218;16.326;2023-03-23T06:57:17;14.20;68.20
49679;DHT22;35570;48.218;16.326;2023-03-23T06:59:43;14.30;67.10
49679;DHT22;35570;48.218;16.326;2023-03-23T07:02:10;14.30;65.60
49679;DHT22;35570;48.218;16.326;2023-03-23T07:04:37;14.30;67.50
49679;DHT22;35570;48.218;16.326;2023-03-23T07:07:04;14.30;67.80
49679;DHT22;35570;48.218;16.326;2023-03-23T07:09:30;14.30;68.70
49679;DHT22;35570;48.218;16.326;2023-03-23T07:11:56;14.30;67.20
49679;DHT22;35570;48.218;16.326;2023-03-23T07:14:22;14.30;67.50
49679;DHT22;35570;48.218;16.326;2023-03-23T07:16:48;14.40;69.10
49679;DHT22;35570;48.218;16.326;2023-03-23T07:19:14;14.40;69.00
49679;DHT22;35570;48.218;16.326;2023-03-23T07:21:40;14.50;67.70
49679;DHT22;35570;48.218;16.326;2023-03-23T07:24:09;14.60;68.20
49679;DHT22;35570;48.218;16.326;2023-03-23T07:26:37;14.70;66.20
49679;DHT22;35570;48.218;16.326;2023-03-23T07:29:03;14.70;65.60
49679;DHT22;35570;48.218;16.326;2023-03-23T07:31:28;14.70;68.50
49679;DHT22;35570;48.218;16.326;2023-03-23T07:33:54;14.80;64.80
49679;DHT22;35570;48.218;16.326;2023-03-23T07:36:20;14.80;64.50
49679;DHT22;35570;48.218;16.326;2023-03-23T07:38:45;14.90;66.20
49679;DHT22;35570;48.218;16.326;2023-03-23T07:41:11;15.00;67.20
49679;DHT22;35570;48.218;16.326;2023-03-23T07:43:37;15.00;65.60
49679;DHT22;35570;48.218;16.326;2023-03-23T07:46:02;15.10;64.30
49679;DHT22;35570;48.218;16.326;2023-03-23T07:48:28;15.10;64.10
49679;DHT22;35570;48.218;16.326;2023-03-23T07:50:53;15.10;64.90
49679;DHT22;35570;48.218;16.326;2023-03-23T07:53:19;15.20;65.30
49679;DHT22;35570;48.218;16.326;2023-03-23T07:55:46;15.30;65.40
49679;DHT22;35570;48.218;16.326;2023-03-23T07:58:12;15.40;66.20
49679;DHT22;35570;48.218;16.326;2023-03-23T08:00:43;15.50;65.30
49679;DHT22;35570;48.218;16.326;2023-03-23T08:03:10;15.60;63.70
49679;DHT22;35570;48.218;16.326;2023-03-23T08:05:35;15.70;62.20
49679;DHT22;35570;48.218;16.326;2023-03-23T08:08:01;15.80;63.80
49679;DHT22;35570;48.218;16.326;2023-03-23T08:10:27;15.70;61.60
49679;DHT22;35570;48.218;16.326;2023-03-23T08:12:54;15.70;62.40
49679;DHT22;35570;48.218;16.326;2023-03-23T08:15:21;15.80;63.50
49679;DHT22;35570;48.218;16.326;2023-03-23T08:17:47;15.90;64.10
49679;DHT22;35570;48.218;16.326;2023-03-23T08:20:14;15.90;62.80
49679;DHT22;35570;48.218;16.326;2023-03-23T08:22:41;15.90;63.80
49679;DHT22;35570;48.218;16.326;2023-03-23T08:25:09;16.00;61.70
49679;DHT22;35570;48.218;16.326;2023-03-23T08:27:36;15.90;64.10
49679;DHT22;35570;48.218;16.326;2023-03-23T08:30:03;15.90;64.80
49679;DHT22;35570;48.218;16.326;2023-03-23T08:32:32;15.90;63.20
49679;DHT22;35570;48.218;16.326;2023-03-23T08:34:58;15.90;66.10
49679;DHT22;35570;48.218;16.326;2023-03-23T08:37:24;15.80;63.90
49679;DHT22;35570;48.218;16.326;2023-03-23T08:39:54;15.80;64.40
49679;DHT22;35570;48.218;16.326;2023-03-23T08:42:20;15.80;67.70
49679;DHT22;35570;48.218;16.326;2023-03-23T08:44:46;15.80;67.50
49679;DHT22;35570;48.218;16.326;2023-03-23T08:47:11;16.00;65.40
49679;DHT22;35570;48.218;16.326;2023-03-23T08:49:37;16.20;66.50
49679;DHT22;35570;48.218;16.326;2023-03-23T08:52:03;16.50;67.20
49679;DHT22;35570;48.218;16.326;2023-03-23T08:54:29;16.90;66.70
49679;DHT22;35570;48.218;16.326;2023-03-23T08:56:58;17.20;64.10
49679;DHT22;35570;48.218;16.326;2023-03-23T08:59:24;17.60;61.40
49679;DHT22;35570;48.218;16.326;2023-03-23T09:01:50;18.00;60.60
49679;DHT22;35570;48.218;16.326;2023-03-23T09:04:16;18.40;58.70
49679;DHT22;35570;48.218;16.326;2023-03-23T09:06:42;18.60;58.60
49679;DHT22;35570;48.218;16.326;2023-03-23T09:09:08;18.80;58.50
49679;DHT22;35570;48.218;16.326;2023-03-23T09:11:35;19.00;57.40
49679;DHT22;35570;48.218;16.326;2023-03-23T09:14:02;19.30;56.90
49679;DHT22;35570;48.218;16.326;2023-03-23T09:16:28;19.60;56.60
49679;DHT22;35570;48.218;16.326;2023-03-23T09:18:54;19.70;55.50
49679;DHT22;35570;48.218;16.326;2023-03-23T09:21:26;19.80;54.90
49679;DHT22;35570;48.218;16.326;2023-03-23T09:23:53;20.00;53.90
49679;DHT22;35570;48.218;16.326;2023-03-23T09:26:24;20.20;53.20
49679;DHT22;35570;48.218;16.326;2023-03-23T09:28:50;20.30;53.60
49679;DHT22;35570;48.218;16.326;2023-03-23T09:31:17;20.40;54.20
49679;DHT22;35570;48.218;16.326;2023-03-23T09:33:46;20.50;53.10
49679;DHT22;35570;48.218;16.326;2023-03-23T09:36:12;20.70;52.60
49679;DHT22;35570;48.218;16.326;2023-03-23T09:38:40;20.60;50.10
49679;DHT22;35570;48.218;16.326;2023-03-23T09:44:31;20.80;51.60
49679;DHT22;35570;48.218;16.326;2023-03-23T09:50:15;21.20;52.20
49679;DHT22;35570;48.218;16.326;2023-03-23T09:53:17;21.40;50.40
49679;DHT22;35570;48.218;16.326;2023-03-23T09:55:44;21.40;49.20
49679;DHT22;35570;48.218;16.326;2023-03-23T09:58:28;21.70;51.10
49679;DHT22;35570;48.218;16.326;2023-03-23T10:03:58;22.20;64.30
49679;DHT22;35570;48.218;16.326;2023-03-23T10:06:25;22.40;62.90
49679;DHT22;35570;48.218;16.326;2023-03-23T10:09:00;22.60;60.60
49679;DHT22;35570;48.218;16.326;2023-03-23T10:17:14;22.80;57.90
49679;DHT22;35570;48.218;16.326;2023-03-23T10:19:52;23.10;56.70
49679;DHT22;35570;48.218;16.326;2023-03-23T10:22:29;23.20;58.50
49679;DHT22;35570;48.218;16.326;2023-03-23T10:28:15;23.70;56.40
49679;DHT22;35570;48.218;16.326;2023-03-23T10:32:56;24.10;52.90
49679;DHT22;35570;48.218;16.326;2023-03-23T10:35:34;24.70;54.30
49679;DHT22;35570;48.218;16.326;2023-03-23T10:38:06;25.30;50.70
49679;DHT22;35570;48.218;16.326;2023-03-23T10:40:44;25.60;49.90
49679;DHT22;35570;48.218;16.326;2023-03-23T10:43:11;26.60;50.20
49679;DHT22;35570;48.218;16.326;2023-03-23T10:45:36;27.50;47.00
49679;DHT22;35570;48.218;16.326;2023-03-23T10:48:10;27.80;40.20
49679;DHT22;35570;48.218;16.326;2023-03-23T10:50:37;28.10;46.20
49679;DHT22;35570;48.218;16.326;2023-03-23T10:53:14;28.50;43.20
49679;DHT22;35570;48.218;16.326;2023-03-23T10:55:42;28.80;43.80
49679;DHT22;35570;48.218;16.326;2023-03-23T10:58:12;29.30;41.80
49679;DHT22;35570;48.218;16.326;2023-03-23T11:00:47;29.70;41.60
49679;DHT22;35570;48.218;16.326;2023-03-23T11:05:49;30.80;41.40
49679;DHT22;35570;48.218;16.326;2023-03-23T11:08:24;31.40;37.80
49679;DHT22;35570;48.218;16.326;2023-03-23T11:13:47;31.50;36.20
49679;DHT22;35570;48.218;16.326;2023-03-23T11:16:34;31.70;38.30
49679;DHT22;35570;48.218;16.326;2023-03-23T11:19:13;31.60;38.60
49679;DHT22;35570;48.218;16.326;2023-03-23T11:21:40;31.60;38.80
49679;DHT22;35570;48.218;16.326;2023-03-23T11:24:08;31.90;38.80
49679;DHT22;35570;48.218;16.326;2023-03-23T11:26:35;32.20;37.40
49679;DHT22;35570;48.218;16.326;2023-03-23T11:29:16;32.30;38.00
49679;DHT22;35570;48.218;16.326;2023-03-23T11:31:46;32.20;37.60
49679;DHT22;35570;48.218;16.326;2023-03-23T11:34:21;32.30;36.50
49679;DHT22;35570;48.218;16.326;2023-03-23T11:36:53;32.30;37.30
49679;DHT22;35570;48.218;16.326;2023-03-23T11:39:29;31.90;38.80
49679;DHT22;35570;48.218;16.326;2023-03-23T11:41:58;31.20;38.00
49679;DHT22;35570;48.218;16.326;2023-03-23T11:44:31;30.60;39.90
49679;DHT22;35570;48.218;16.326;2023-03-23T11:50:03;29.10;37.70
49679;DHT22;35570;48.218;16.326;2023-03-23T11:52:40;28.40;42.20
49679;DHT22;35570;48.218;16.326;2023-03-23T11:55:24;27.70;40.90
49679;DHT22;35570;48.218;16.326;2023-03-23T11:57:52;27.10;38.90
49679;DHT22;35570;48.218;16.326;2023-03-23T12:00:21;26.50;39.30
49679;DHT22;35570;48.218;16.326;2023-03-23T12:02:53;26.10;40.70
49679;DHT22;35570;48.218;16.326;2023-03-23T12:11:10;25.20;44.50
49679;DHT22;35570;48.218;16.326;2023-03-23T12:16:41;24.90;43.90
49679;DHT22;35570;48.218;16.326;2023-03-23T12:19:29;24.70;44.50
49679;DHT22;35570;48.218;16.326;2023-03-23T12:48:15;27.50;42.40
49679;DHT22;35570;48.218;16.326;2023-03-23T12:51:12;26.90;43.70
49679;DHT22;35570;48.218;16.326;2023-03-23T12:56:20;25.90;42.20
49679;DHT22;35570;48.218;16.326;2023-03-23T12:58:53;26.40;43.40
49679;DHT22;35570;48.218;16.326;2023-03-23T13:01:25;27.10;44.20
49679;DHT22;35570;48.218;16.326;2023-03-23T13:05:01;27.60;43.10
49679;DHT22;35570;48.218;16.326;2023-03-23T13:06:55;28.10;43.00
49679;DHT22;35570;48.218;16.326;2023-03-23T13:09:43;28.60;39.20
49679;DHT22;35570;48.218;16.326;2023-03-23T13:12:13;29.10;40.80
49679;DHT22;35570;48.218;16.326;2023-03-23T13:20:37;29.90;38.20
49679;DHT22;35570;48.218;16.326;2023-03-23T13:23:25;30.20;37.90
49679;DHT22;35570;48.218;16.326;2023-03-23T13:28:29;30.00;37.30
49679;DHT22;35570;48.218;16.326;2023-03-23T13:30:55;30.00;38.70
49679;DHT22;35570;48.218;16.326;2023-03-23T13:33:22;30.20;37.40
49679;DHT22;35570;48.218;16.326;2023-03-23T13:35:49;30.40;36.80
49679;DHT22;35570;48.218;16.326;2023-03-23T13:38:29;30.40;38.90
49679;DHT22;35570;48.218;16.326;2023-03-23T13:40:55;30.00;37.40
49679;DHT22;35570;48.218;16.326;2023-03-23T13:43:30;29.90;39.50
49679;DHT22;35570;48.218;16.326;2023-03-23T13:51:36;29.20;39.10
49679;DHT22;35570;48.218;16.326;2023-03-23T13:54:31;28.60;38.70
49679;DHT22;35570;48.218;16.326;2023-03-23T13:57:01;28.20;38.20
49679;DHT22;35570;48.218;16.326;2023-03-23T14:01:54;28.50;38.80
49679;DHT22;35570;48.218;16.326;2023-03-23T14:04:21;29.10;40.50
49679;DHT22;35570;48.218;16.326;2023-03-23T14:06:49;29.10;39.40
49679;DHT22;35570;48.218;16.326;2023-03-23T14:14:23;28.10;40.20
49679;DHT22;35570;48.218;16.326;2023-03-23T14:16:50;27.90;39.40
49679;DHT22;35570;48.218;16.326;2023-03-23T14:19:28;27.80;37.30
49679;DHT22;35570;48.218;16.326;2023-03-23T14:21:59;27.90;41.80
49679;DHT22;35570;48.218;16.326;2023-03-23T14:24:28;27.80;38.20
49679;DHT22;35570;48.218;16.326;2023-03-23T14:29:31;28.00;38.20
49679;DHT22;35570;48.218;16.326;2023-03-23T14:31:57;27.80;41.10
49679;DHT22;35570;48.218;16.326;2023-03-23T14:34:30;27.90;41.10
49679;DHT22;35570;48.218;16.326;2023-03-23T14:36:57;27.90;40.30
49679;DHT22;35570;48.218;16.326;2023-03-23T14:39:29;27.80;37.90
49679;DHT22;35570;48.218;16.326;2023-03-23T14:42:04;27.50;36.10
49679;DHT22;35570;48.218;16.326;2023-03-23T14:44:34;27.00;38.50
49679;DHT22;35570;48.218;16.326;2023-03-23T14:47:16;26.70;39.50
49679;DHT22;35570;48.218;16.326;2023-03-23T14:49:45;26.40;40.80
49679;DHT22;35570;48.218;16.326;2023-03-23T14:52:13;26.40;41.90
49679;DHT22;35570;48.218;16.326;2023-03-23T14:54:40;26.60;40.20
49679;DHT22;35570;48.218;16.326;2023-03-23T14:59:42;26.30;40.90
49679;DHT22;35570;48.218;16.326;2023-03-23T15:04:53;26.40;41.10
49679;DHT22;35570;48.218;16.326;2023-03-23T15:07:21;26.50;41.30
49679;DHT22;35570;48.218;16.326;2023-03-23T15:09:49;26.50;41.10
49679;DHT22;35570;48.218;16.326;2023-03-23T15:12:25;26.50;40.20
49679;DHT22;35570;48.218;16.326;2023-03-23T15:15:03;26.30;38.10
49679;DHT22;35570;48.218;16.326;2023-03-23T15:17:32;25.70;38.80
49679;DHT22;35570;48.218;16.326;2023-03-23T15:20:09;25.70;41.30
49679;DHT22;35570;48.218;16.326;2023-03-23T15:22:36;25.60;40.20
49679;DHT22;35570;48.218;16.326;2023-03-23T15:25:17;25.50;42.70
49679;DHT22;35570;48.218;16.326;2023-03-23T15:27:49;25.30;40.10
49679;DHT22;35570;48.218;16.326;2023-03-23T15:32:55;24.70;41.60
49679;DHT22;35570;48.218;16.326;2023-03-23T15:35:25;24.50;43.60
49679;DHT22;35570;48.218;16.326;2023-03-23T15:38:02;24.30;41.60
49679;DHT22;35570;48.218;16.326;2023-03-23T15:40:36;23.70;41.10
49679;DHT22;35570;48.218;16.326;2023-03-23T15:43:24;23.50;42.80
49679;DHT22;35570;48.218;16.326;2023-03-23T15:45:54;23.30;42.10
49679;DHT22;35570;48.218;16.326;2023-03-23T15:48:21;23.10;44.80
49679;DHT22;35570;48.218;16.326;2023-03-23T15:50:49;22.90;43.90
49679;DHT22;35570;48.218;16.326;2023-03-23T15:53:36;22.80;43.00
49679;DHT22;35570;48.218;16.326;2023-03-23T15:56:04;22.50;42.10
49679;DHT22;35570;48.218;16.326;2023-03-23T15:58:32;22.40;42.20
49679;DHT22;35570;48.218;16.326;2023-03-23T16:00:59;22.30;45.00
49679;DHT22;35570;48.218;16.326;2023-03-23T16:03:37;22.10;45.60
49679;DHT22;35570;48.218;16.326;2023-03-23T16:06:03;22.00;43.40
49679;DHT22;35570;48.218;16.326;2023-03-23T16:08:29;21.90;46.40
49679;DHT22;35570;48.218;16.326;2023-03-23T16:10:54;21.90;45.00
49679;DHT22;35570;48.218;16.326;2023-03-23T16:13:20;21.80;44.10
49679;DHT22;35570;48.218;16.326;2023-03-23T16:15:47;21.70;45.30
49679;DHT22;35570;48.218;16.326;2023-03-23T16:18:19;21.60;45.30
49679;DHT22;35570;48.218;16.326;2023-03-23T16:20:46;21.60;47.70
49679;DHT22;35570;48.218;16.326;2023-03-23T16:23:12;21.50;47.00
49679;DHT22;35570;48.218;16.326;2023-03-23T16:25:38;21.40;46.20
49679;DHT22;35570;48.218;16.326;2023-03-23T16:28:04;21.30;48.50
49679;DHT22;35570;48.218;16.326;2023-03-23T16:30:33;21.40;49.40
49679;DHT22;35570;48.218;16.326;2023-03-23T16:33:00;21.40;47.50
49679;DHT22;35570;48.218;16.326;2023-03-23T16:35:26;21.30;48.40
49679;DHT22;35570;48.218;16.326;2023-03-23T16:37:53;21.30;49.40
49679;DHT22;35570;48.218;16.326;2023-03-23T16:40:20;21.30;48.80
49679;DHT22;35570;48.218;16.326;2023-03-23T16:42:46;21.20;51.20
49679;DHT22;35570;48.218;16.326;2023-03-23T16:45:13;21.20;46.50
49679;DHT22;35570;48.218;16.326;2023-03-23T16:47:40;21.10;48.70
49679;DHT22;35570;48.218;16.326;2023-03-23T16:50:09;21.00;46.40
49679;DHT22;35570;48.218;16.326;2023-03-23T16:52:37;20.90;48.00
49679;DHT22;35570;48.218;16.326;2023-03-23T16:55:03;20.90;47.90
49679;DHT22;35570;48.218;16.326;2023-03-23T16:57:31;20.80;48.00
49679;DHT22;35570;48.218;16.326;2023-03-23T16:59:58;20.80;47.50
49679;DHT22;35570;48.218;16.326;2023-03-23T17:02:25;20.70;48.30
49679;DHT22;35570;48.218;16.326;2023-03-23T17:04:51;20.60;48.70
49679;DHT22;35570;48.218;16.326;2023-03-23T17:07:17;20.60;51.10
49679;DHT22;35570;48.218;16.326;2023-03-23T17:09:42;20.60;50.00
49679;DHT22;35570;48.218;16.326;2023-03-23T17:12:08;20.60;48.90
49679;DHT22;35570;48.218;16.326;2023-03-23T17:14:34;20.50;52.40
49679;DHT22;35570;48.218;16.326;2023-03-23T17:17:00;20.50;51.30
49679;DHT22;35570;48.218;16.326;2023-03-23T17:19:26;20.40;51.30
49679;DHT22;35570;48.218;16.326;2023-03-23T17:21:51;20.40;53.90
49679;DHT22;35570;48.218;16.326;2023-03-23T17:24:17;20.40;51.40
49679;DHT22;35570;48.218;16.326;2023-03-23T17:26:43;20.30;51.60
49679;DHT22;35570;48.218;16.326;2023-03-23T17:29:09;20.30;51.80